createdAt,value
2022-12-01T00:00:10.331Z,5.47
2022-12-01T00:01:08.608Z,5.48
2022-12-01T00:01:55.068Z,5.46
2022-12-01T00:02:41.677Z,5.49
2022-12-01T00:03:31.844Z,5.49
2022-12-01T00:04:18.488Z,5.45
2022-12-01T00:05:05.257Z,5.45
2022-12-01T00:06:04.402Z,5.44
2022-12-01T00:06:50.852Z,5.46
2022-12-01T00:07:37.387Z,5.45
2022-12-01T00:08:23.971Z,5.44
2022-12-01T00:09:29.004Z,5.46
2022-12-01T00:10:27.559Z,5.51
2022-12-01T00:11:14.163Z,5.57
2022-12-01T00:12:00.740Z,5.57
2022-12-01T00:12:47.164Z,5.56
2022-12-01T00:13:34.993Z,5.53
2022-12-01T00:14:21.433Z,5.52
2022-12-01T00:15:08.109Z,5.53
2022-12-01T00:15:54.573Z,5.52
2022-12-01T00:16:41.141Z,5.53
2022-12-01T00:17:29.505Z,5.53
2022-12-01T00:18:17.144Z,5.55
2022-12-01T00:19:03.850Z,5.56
2022-12-01T00:19:50.773Z,5.55
2022-12-01T00:20:37.895Z,5.54
2022-12-01T00:21:27.225Z,5.55
2022-12-01T00:22:13.885Z,5.53
2022-12-01T00:23:00.680Z,5.55
2022-12-01T00:23:49.906Z,5.52
2022-12-01T00:24:36.370Z,5.52
2022-12-01T00:25:22.920Z,5.52
2022-12-01T00:26:09.714Z,5.51
2022-12-01T00:26:56.432Z,5.52
2022-12-01T00:27:43.192Z,5.51
2022-12-01T00:28:29.632Z,5.52
2022-12-01T00:29:16.294Z,5.52
2022-12-01T00:30:03.904Z,5.56
2022-12-01T00:30:56.832Z,5.57
2022-12-01T00:31:43.411Z,5.59
2022-12-01T00:32:30.951Z,5.60
2022-12-01T00:33:17.623Z,5.59
2022-12-01T00:34:08.271Z,5.59
2022-12-01T00:34:57.962Z,5.59
2022-12-01T00:35:44.450Z,5.58
2022-12-01T00:36:30.869Z,5.60
2022-12-01T00:37:17.472Z,5.61
2022-12-01T00:38:03.967Z,5.60
2022-12-01T00:38:55.560Z,5.60
2022-12-01T00:39:42.022Z,5.59
2022-12-01T00:40:28.506Z,5.60
2022-12-01T00:41:15.032Z,5.59
2022-12-01T00:42:01.642Z,5.58
2022-12-01T00:42:48.157Z,5.60
2022-12-01T00:43:34.748Z,5.62
2022-12-01T00:44:21.430Z,5.63
2022-12-01T00:45:08.807Z,5.62
2022-12-01T00:45:56.435Z,5.62
2022-12-01T00:46:43.043Z,5.62
2022-12-01T00:47:29.529Z,5.59
2022-12-01T00:48:16.146Z,5.60
2022-12-01T00:49:02.747Z,5.61
2022-12-01T00:49:49.598Z,5.59
2022-12-01T00:50:36.453Z,5.57
2022-12-01T00:51:23.060Z,5.58
2022-12-01T00:52:09.605Z,5.60
2022-12-01T00:52:56.302Z,5.59
2022-12-01T00:53:42.848Z,5.58
2022-12-01T00:54:32.034Z,5.57
2022-12-01T00:55:19.274Z,5.56
2022-12-01T00:56:06.126Z,5.55
2022-12-01T00:56:53.046Z,5.56
2022-12-01T00:57:39.524Z,5.57
2022-12-01T00:58:28.403Z,5.57
2022-12-01T00:59:14.918Z,5.63
2022-12-01T01:00:01.646Z,5.63
2022-12-01T01:00:48.366Z,5.65
2022-12-01T01:01:35.087Z,5.63
2022-12-01T01:02:21.689Z,5.59
2022-12-01T01:03:08.657Z,5.59
2022-12-01T01:03:55.623Z,5.59
2022-12-01T01:04:42.311Z,5.59
2022-12-01T01:05:28.737Z,5.56
2022-12-01T01:06:15.339Z,5.56
2022-12-01T01:07:03.052Z,5.56
2022-12-01T01:07:49.630Z,5.57
2022-12-01T01:08:37.074Z,5.57
2022-12-01T01:09:23.715Z,5.62
2022-12-01T01:10:11.044Z,5.62
2022-12-01T01:11:00.504Z,5.64
2022-12-01T01:11:47.307Z,5.61
2022-12-01T01:12:33.888Z,5.60
2022-12-01T01:13:20.603Z,5.56
2022-12-01T01:14:08.551Z,5.58
2022-12-01T01:14:55.206Z,5.58
2022-12-01T01:15:42.106Z,5.57
2022-12-01T01:16:29.428Z,5.58
2022-12-01T01:17:15.995Z,5.57
2022-12-01T01:18:02.631Z,5.55
2022-12-01T01:18:49.822Z,5.56
2022-12-01T01:19:36.284Z,5.61
2022-12-01T01:20:22.961Z,5.59
2022-12-01T01:21:14.116Z,5.62
2022-12-01T01:22:00.575Z,5.61
2022-12-01T01:22:47.124Z,5.56
2022-12-01T01:23:34.166Z,5.53
2022-12-01T01:24:20.686Z,5.53
2022-12-01T01:25:07.551Z,5.51
2022-12-01T01:25:54.203Z,5.50
2022-12-01T01:26:40.666Z,5.50
2022-12-01T01:27:27.347Z,5.50
2022-12-01T01:28:13.976Z,5.49
2022-12-01T01:29:03.016Z,5.47
2022-12-01T01:29:49.675Z,5.49
2022-12-01T01:30:39.731Z,5.50
2022-12-01T01:31:28.909Z,5.51
2022-12-01T01:32:15.518Z,5.49
2022-12-01T01:33:02.036Z,5.49
2022-12-01T01:33:49.224Z,5.51
2022-12-01T01:34:35.953Z,5.53
2022-12-01T01:35:22.483Z,5.53
2022-12-01T01:36:10.009Z,5.54
2022-12-01T01:36:56.428Z,5.53
2022-12-01T01:37:43.105Z,5.55
2022-12-01T01:38:30.314Z,5.54
2022-12-01T01:39:16.859Z,5.52
2022-12-01T01:40:03.787Z,5.54
2022-12-01T01:40:50.201Z,5.53
2022-12-01T01:41:37.022Z,5.54
2022-12-01T01:42:23.500Z,5.53
2022-12-01T01:43:37.524Z,5.55
2022-12-01T01:44:54.872Z,5.56
2022-12-01T01:45:41.755Z,5.59
2022-12-01T01:46:34.376Z,5.62
2022-12-01T01:47:33.003Z,5.61
2022-12-01T01:48:19.534Z,5.62
2022-12-01T01:49:10.266Z,5.62
2022-12-01T01:50:05.853Z,5.62
2022-12-01T01:50:52.765Z,5.60
2022-12-01T01:51:43.463Z,5.60
2022-12-01T01:52:30.015Z,5.59
2022-12-01T01:53:16.611Z,5.57
2022-12-01T01:54:09.476Z,5.55
2022-12-01T01:54:56.282Z,5.56
2022-12-01T01:55:43.072Z,5.55
2022-12-01T01:56:30.730Z,5.56
2022-12-01T01:57:26.433Z,5.56
2022-12-01T01:58:13.439Z,5.56
2022-12-01T01:59:00.520Z,5.55
2022-12-01T01:59:54.379Z,5.56
2022-12-01T02:00:44.648Z,5.55
2022-12-01T02:01:31.589Z,5.58
2022-12-01T02:02:18.419Z,5.58
2022-12-01T02:03:05.118Z,5.61
2022-12-01T02:03:54.631Z,5.62
2022-12-01T02:04:46.532Z,5.62
2022-12-01T02:05:36.985Z,5.62
2022-12-01T02:06:24.524Z,5.60
2022-12-01T02:07:16.172Z,5.61
2022-12-01T02:08:04.309Z,5.60
2022-12-01T02:08:50.982Z,5.63
2022-12-01T02:09:37.571Z,5.64
2022-12-01T02:10:44.041Z,5.62
2022-12-01T02:11:48.372Z,5.60
2022-12-01T02:12:41.133Z,5.60
2022-12-01T02:13:33.564Z,5.57
2022-12-01T02:14:31.949Z,5.58
2022-12-01T02:15:56.839Z,5.57
2022-12-01T02:16:54.430Z,5.61
2022-12-01T02:17:43.945Z,5.59
2022-12-01T02:18:52.191Z,5.56
2022-12-01T02:20:09.432Z,5.63
2022-12-01T02:21:25.772Z,5.66
2022-12-01T02:22:48.187Z,5.68
2022-12-01T02:24:09.504Z,5.71
2022-12-01T02:25:19.405Z,5.72
2022-12-01T02:26:30.999Z,5.71
2022-12-01T02:27:20.542Z,5.75
2022-12-01T02:28:20.339Z,5.75
2022-12-01T02:29:24.965Z,5.76
2022-12-01T02:30:19.138Z,5.73
2022-12-01T02:31:23.811Z,5.68
2022-12-01T02:32:39.513Z,5.67
2022-12-01T02:33:31.673Z,5.68
2022-12-01T02:34:44.047Z,5.67
2022-12-01T02:35:58.596Z,5.69
2022-12-01T02:36:48.186Z,5.69
2022-12-01T02:38:18.059Z,5.72
2022-12-01T02:39:41.768Z,5.67
2022-12-01T02:40:36.273Z,5.65
2022-12-01T02:41:51.248Z,5.75
2022-12-01T02:42:53.619Z,5.76
2022-12-01T02:44:02.329Z,5.73
2022-12-01T02:44:49.156Z,5.73
2022-12-01T02:46:16.963Z,5.76
2022-12-01T02:47:15.055Z,5.76
2022-12-01T02:48:08.831Z,5.75
2022-12-01T02:49:02.073Z,5.75
2022-12-01T02:49:53.459Z,5.77
2022-12-01T02:50:41.190Z,5.74
2022-12-01T02:51:32.608Z,5.72
2022-12-01T02:52:23.878Z,5.70
2022-12-01T02:53:15.592Z,5.67
2022-12-01T02:54:05.457Z,5.69
2022-12-01T02:54:53.210Z,5.67
2022-12-01T02:55:48.625Z,5.63
2022-12-01T02:56:35.069Z,5.63
2022-12-01T02:57:23.331Z,5.61
2022-12-01T02:58:14.742Z,5.59
2022-12-01T02:59:02.247Z,5.60
2022-12-01T02:59:54.891Z,5.62
2022-12-01T03:01:07.823Z,5.61
2022-12-01T03:02:12.021Z,5.60
2022-12-01T03:03:32.049Z,5.62
2022-12-01T03:04:46.908Z,5.60
2022-12-01T03:05:51.517Z,5.59
2022-12-01T03:07:02.352Z,5.63
2022-12-01T03:08:33.724Z,5.64
2022-12-01T03:09:41.712Z,5.61
2022-12-01T03:10:56.159Z,5.61
2022-12-01T03:12:13.573Z,5.57
2022-12-01T03:13:18.493Z,5.69
2022-12-01T03:14:33.308Z,5.72
2022-12-01T03:15:55.478Z,5.74
2022-12-01T03:16:53.300Z,5.69
2022-12-01T03:18:05.316Z,5.63
2022-12-01T03:19:03.726Z,5.69
2022-12-01T03:19:59.527Z,5.66
2022-12-01T03:21:15.019Z,5.64
2022-12-01T03:22:10.327Z,5.67
2022-12-01T03:23:09.731Z,5.70
2022-12-01T03:24:18.063Z,5.65
2022-12-01T03:25:08.064Z,5.68
2022-12-01T03:25:59.065Z,5.67
2022-12-01T03:26:51.684Z,5.67
2022-12-01T03:28:00.692Z,5.70
2022-12-01T03:28:58.777Z,5.65
2022-12-01T03:29:51.718Z,5.62
2022-12-01T03:30:43.212Z,5.61
2022-12-01T03:31:40.918Z,5.59
2022-12-01T03:32:38.461Z,5.65
2022-12-01T03:33:36.117Z,5.62
2022-12-01T03:34:35.226Z,5.76
2022-12-01T03:35:33.747Z,5.73
2022-12-01T03:36:35.794Z,5.71
2022-12-01T03:37:32.201Z,5.69
2022-12-01T03:38:26.391Z,5.61
2022-12-01T03:39:20.185Z,5.60
2022-12-01T03:40:12.249Z,5.63
2022-12-01T03:41:23.730Z,5.67
2022-12-01T03:42:27.198Z,5.65
2022-12-01T03:43:24.169Z,5.60
2022-12-01T03:44:20.369Z,5.56
2022-12-01T03:45:19.561Z,5.54
2022-12-01T03:46:12.060Z,5.56
2022-12-01T03:47:08.689Z,5.58
2022-12-01T03:47:55.453Z,5.63
2022-12-01T03:48:42.593Z,5.63
2022-12-01T03:49:30.370Z,5.69
2022-12-01T03:50:18.766Z,5.66
2022-12-01T03:51:24.135Z,5.67
2022-12-01T03:52:19.638Z,5.63
2022-12-01T03:53:19.085Z,5.59
2022-12-01T03:54:16.202Z,5.55
2022-12-01T03:55:14.210Z,5.62
2022-12-01T03:56:05.806Z,5.61
2022-12-01T03:57:00.393Z,5.59
2022-12-01T03:57:53.537Z,5.58
2022-12-01T03:58:46.139Z,5.61
2022-12-01T03:59:38.337Z,5.61
2022-12-01T04:00:25.424Z,5.62
2022-12-01T04:01:13.280Z,5.67
2022-12-01T04:02:00.016Z,5.71
2022-12-01T04:02:47.084Z,5.66
2022-12-01T04:03:34.082Z,5.66
2022-12-01T04:04:20.582Z,5.63
2022-12-01T04:05:09.220Z,5.60
2022-12-01T04:05:55.844Z,5.56
2022-12-01T04:06:48.449Z,5.56
2022-12-01T04:07:36.351Z,5.59
2022-12-01T04:08:22.885Z,5.58
2022-12-01T04:09:09.418Z,5.57
2022-12-01T04:09:56.064Z,5.58
2022-12-01T04:10:44.118Z,5.61
2022-12-01T04:11:49.482Z,5.61
2022-12-01T04:12:36.020Z,5.57
2022-12-01T04:13:23.245Z,5.56
2022-12-01T04:14:09.687Z,5.56
2022-12-01T04:15:02.681Z,5.59
2022-12-01T04:15:50.949Z,5.60
2022-12-01T04:16:37.567Z,5.59
2022-12-01T04:17:25.285Z,5.66
2022-12-01T04:18:11.890Z,5.69
2022-12-01T04:18:58.394Z,5.69
2022-12-01T04:19:44.877Z,5.67
2022-12-01T04:20:31.508Z,5.67
2022-12-01T04:21:18.204Z,5.64
2022-12-01T04:22:04.760Z,5.62
2022-12-01T04:22:51.441Z,5.60
2022-12-01T04:24:04.384Z,5.60
2022-12-01T04:24:51.305Z,5.62
2022-12-01T04:25:37.843Z,5.63
2022-12-01T04:26:24.315Z,5.62
2022-12-01T04:27:11.009Z,5.62
2022-12-01T04:27:57.445Z,5.62
2022-12-01T04:28:43.961Z,5.60
2022-12-01T04:29:30.519Z,5.56
2022-12-01T04:30:17.287Z,5.61
2022-12-01T04:31:04.046Z,5.63
2022-12-01T04:31:51.029Z,5.64
2022-12-01T04:32:42.565Z,5.67
2022-12-01T04:33:29.656Z,5.62
2022-12-01T04:34:16.412Z,5.62
2022-12-01T04:35:03.142Z,5.65
2022-12-01T04:36:09.979Z,5.66
2022-12-01T04:36:56.638Z,5.64
2022-12-01T04:37:43.496Z,5.63
2022-12-01T04:38:31.147Z,5.69
2022-12-01T04:39:18.414Z,5.72
2022-12-01T04:40:06.132Z,5.72
2022-12-01T04:40:52.923Z,5.77
2022-12-01T04:41:39.639Z,5.75
2022-12-01T04:42:26.493Z,5.72
2022-12-01T04:43:13.222Z,5.70
2022-12-01T04:44:00.107Z,5.70
2022-12-01T04:44:46.906Z,5.65
2022-12-01T04:45:33.629Z,5.66
2022-12-01T04:46:21.072Z,5.67
2022-12-01T04:47:08.336Z,5.67
2022-12-01T04:47:55.135Z,5.65
2022-12-01T04:48:41.826Z,5.62
2022-12-01T04:49:28.578Z,5.57
2022-12-01T04:50:15.550Z,5.60
2022-12-01T04:51:03.982Z,5.60
2022-12-01T04:51:50.841Z,5.63
2022-12-01T04:52:37.732Z,5.63
2022-12-01T04:53:27.258Z,5.72
2022-12-01T04:54:14.416Z,5.77
2022-12-01T04:55:01.232Z,5.73
2022-12-01T04:55:52.725Z,5.69
2022-12-01T04:56:45.745Z,5.65
2022-12-01T04:57:32.434Z,5.63
2022-12-01T04:58:21.794Z,5.59
2022-12-01T04:59:08.499Z,5.58
2022-12-01T04:59:55.160Z,5.56
2022-12-01T05:00:41.841Z,5.52
2022-12-01T05:01:28.656Z,5.53
2022-12-01T05:02:15.327Z,5.49
2022-12-01T05:03:01.989Z,5.49
2022-12-01T05:03:51.541Z,5.50
2022-12-01T05:04:41.343Z,5.47
2022-12-01T05:05:31.063Z,5.52
2022-12-01T05:06:23.925Z,5.61
2022-12-01T05:07:10.518Z,5.65
2022-12-01T05:07:59.024Z,5.64
2022-12-01T05:08:46.133Z,5.66
2022-12-01T05:09:32.824Z,5.62
2022-12-01T05:10:19.445Z,5.60
2022-12-01T05:11:11.640Z,5.56
2022-12-01T05:11:58.105Z,5.55
2022-12-01T05:12:48.615Z,5.53
2022-12-01T05:13:40.102Z,5.49
2022-12-01T05:14:26.631Z,5.53
2022-12-01T05:15:13.807Z,5.60
2022-12-01T05:16:08.967Z,5.60
2022-12-01T05:16:57.960Z,5.53
2022-12-01T05:17:44.558Z,5.51
2022-12-01T05:18:31.400Z,5.49
2022-12-01T05:19:37.027Z,5.49
2022-12-01T05:20:44.760Z,5.53
2022-12-01T05:21:31.262Z,5.54
2022-12-01T05:22:26.926Z,5.53
2022-12-01T05:23:30.474Z,5.55
2022-12-01T05:24:19.145Z,5.55
2022-12-01T05:25:05.933Z,5.48
2022-12-01T05:25:53.658Z,5.51
2022-12-01T05:26:44.101Z,5.49
2022-12-01T05:27:33.161Z,5.43
2022-12-01T05:28:20.474Z,5.42
2022-12-01T05:29:08.170Z,5.43
2022-12-01T05:30:13.539Z,5.43
2022-12-01T05:31:00.409Z,5.45
2022-12-01T05:31:51.900Z,5.48
2022-12-01T05:32:38.825Z,5.48
2022-12-01T05:33:27.728Z,5.48
2022-12-01T05:34:14.630Z,5.45
2022-12-01T05:35:02.100Z,5.44
2022-12-01T05:35:49.934Z,5.46
2022-12-01T05:36:47.687Z,5.46
2022-12-01T05:37:34.735Z,5.43
2022-12-01T05:38:21.972Z,5.44
2022-12-01T05:39:08.866Z,5.44
2022-12-01T05:39:55.334Z,5.42
2022-12-01T05:40:41.861Z,5.41
2022-12-01T05:41:28.554Z,5.40
2022-12-01T05:42:15.126Z,5.42
2022-12-01T05:43:01.786Z,5.44
2022-12-01T05:43:48.449Z,5.44
2022-12-01T05:44:34.938Z,5.39
2022-12-01T05:45:21.700Z,5.38
2022-12-01T05:46:08.373Z,5.37
2022-12-01T05:46:55.019Z,5.35
2022-12-01T05:47:41.517Z,5.37
2022-12-01T05:48:28.243Z,5.38
2022-12-01T05:49:14.846Z,5.38
2022-12-01T05:50:05.502Z,5.36
2022-12-01T05:50:52.482Z,5.37
2022-12-01T05:51:39.192Z,5.46
2022-12-01T05:52:25.643Z,5.51
2022-12-01T05:53:13.973Z,5.49
2022-12-01T05:54:00.757Z,5.44
2022-12-01T05:54:47.230Z,5.45
2022-12-01T05:55:34.709Z,5.44
2022-12-01T05:56:21.743Z,5.44
2022-12-01T05:57:08.391Z,5.43
2022-12-01T05:57:56.114Z,5.42
2022-12-01T05:58:42.668Z,5.45
2022-12-01T05:59:29.202Z,5.43
2022-12-01T06:00:16.951Z,5.47
2022-12-01T06:01:03.961Z,5.43
2022-12-01T06:01:52.937Z,5.44
2022-12-01T06:02:41.259Z,5.42
2022-12-01T06:03:27.865Z,5.46
2022-12-01T06:04:15.107Z,5.46
2022-12-01T06:05:01.663Z,5.43
2022-12-01T06:05:48.194Z,5.43
2022-12-01T06:06:34.682Z,5.42
2022-12-01T06:07:23.390Z,5.41
2022-12-01T06:08:09.956Z,5.39
2022-12-01T06:08:56.432Z,5.43
2022-12-01T06:09:43.198Z,5.43
2022-12-01T06:10:29.934Z,5.48
2022-12-01T06:11:24.939Z,5.44
2022-12-01T06:12:11.717Z,5.42
2022-12-01T06:12:58.549Z,5.37
2022-12-01T06:13:47.471Z,5.43
2022-12-01T06:14:34.095Z,5.41
2022-12-01T06:15:20.769Z,5.37
2022-12-01T06:16:07.759Z,5.36
2022-12-01T06:16:54.269Z,5.40
2022-12-01T06:17:41.182Z,5.40
2022-12-01T06:18:31.659Z,5.43
2022-12-01T06:19:18.161Z,5.42
2022-12-01T06:20:05.491Z,5.41
2022-12-01T06:20:52.003Z,5.41
2022-12-01T06:21:38.731Z,5.37
2022-12-01T06:22:25.699Z,5.42
2022-12-01T06:23:12.154Z,5.41
2022-12-01T06:23:58.736Z,5.42
2022-12-01T06:24:45.349Z,5.40
2022-12-01T06:25:31.981Z,5.45
2022-12-01T06:26:18.586Z,5.46
2022-12-01T06:27:05.480Z,5.48
2022-12-01T06:27:57.272Z,5.46
2022-12-01T06:28:43.768Z,5.42
2022-12-01T06:29:30.388Z,5.41
2022-12-01T06:30:17.179Z,5.42
2022-12-01T06:31:03.970Z,5.44
2022-12-01T06:31:50.688Z,5.41
2022-12-01T06:32:37.270Z,5.41
2022-12-01T06:33:23.735Z,5.39
2022-12-01T06:34:10.755Z,5.35
2022-12-01T06:34:57.322Z,5.34
2022-12-01T06:35:43.764Z,5.34
2022-12-01T06:36:30.420Z,5.33
2022-12-01T06:37:17.341Z,5.33
2022-12-01T06:38:04.171Z,5.35
2022-12-01T06:38:50.833Z,5.35
2022-12-01T06:39:37.794Z,5.35
2022-12-01T06:40:24.626Z,5.36
2022-12-01T06:41:11.126Z,5.42
2022-12-01T06:41:57.572Z,5.41
2022-12-01T06:42:44.076Z,5.43
2022-12-01T06:43:30.544Z,5.39
2022-12-01T06:44:17.074Z,5.41
2022-12-01T06:45:03.979Z,5.40
2022-12-01T06:45:50.874Z,5.39
2022-12-01T06:46:38.394Z,5.33
2022-12-01T06:47:31.067Z,5.33
2022-12-01T06:48:17.799Z,5.31
2022-12-01T06:49:07.059Z,5.30
2022-12-01T06:49:53.638Z,5.32
2022-12-01T06:50:40.571Z,5.40
2022-12-01T06:51:27.346Z,5.41
2022-12-01T06:52:14.092Z,5.40
2022-12-01T06:53:01.274Z,5.40
2022-12-01T06:53:50.031Z,5.38
2022-12-01T06:54:37.591Z,5.44
2022-12-01T06:55:25.409Z,5.44
2022-12-01T06:56:12.649Z,5.42
2022-12-01T06:56:59.605Z,5.41
2022-12-01T06:57:46.492Z,5.45
2022-12-01T06:58:34.586Z,5.45
2022-12-01T06:59:21.654Z,5.47
2022-12-01T07:00:09.470Z,5.48
2022-12-01T07:00:59.812Z,5.47
2022-12-01T07:01:46.658Z,5.46
2022-12-01T07:02:33.398Z,5.42
2022-12-01T07:03:19.932Z,5.42
2022-12-01T07:04:06.596Z,5.42
2022-12-01T07:04:53.268Z,5.44
2022-12-01T07:05:40.190Z,5.44
2022-12-01T07:06:26.766Z,5.41
2022-12-01T07:07:13.718Z,5.43
2022-12-01T07:08:01.030Z,5.43
2022-12-01T07:08:47.826Z,5.43
2022-12-01T07:09:34.820Z,5.40
2022-12-01T07:10:21.663Z,5.43
2022-12-01T07:11:12.642Z,5.50
2022-12-01T07:11:59.372Z,5.50
2022-12-01T07:12:46.133Z,5.49
2022-12-01T07:13:34.205Z,5.47
2022-12-01T07:14:24.311Z,5.48
2022-12-01T07:15:11.013Z,5.46
2022-12-01T07:15:58.494Z,5.45
2022-12-01T07:16:45.029Z,5.48
2022-12-01T07:17:31.685Z,5.46
2022-12-01T07:18:18.548Z,5.45
2022-12-01T07:19:05.270Z,5.47
2022-12-01T07:19:52.246Z,5.51
2022-12-01T07:20:41.196Z,5.50
2022-12-01T07:21:30.195Z,5.50
2022-12-01T07:22:16.961Z,5.45
2022-12-01T07:23:03.961Z,5.45
2022-12-01T07:23:50.953Z,5.44
2022-12-01T07:24:37.923Z,5.43
2022-12-01T07:25:24.601Z,5.48
2022-12-01T07:26:14.468Z,5.47
2022-12-01T07:27:01.063Z,5.50
2022-12-01T07:27:47.804Z,5.50
2022-12-01T07:28:34.720Z,5.52
2022-12-01T07:29:21.177Z,5.51
2022-12-01T07:30:08.519Z,5.49
2022-12-01T07:31:01.793Z,5.46
2022-12-01T07:31:48.355Z,5.46
2022-12-01T07:32:35.024Z,5.46
2022-12-01T07:33:21.671Z,5.44
2022-12-01T07:34:12.095Z,5.45
2022-12-01T07:34:58.650Z,5.53
2022-12-01T07:35:45.618Z,5.57
2022-12-01T07:36:33.021Z,5.52
2022-12-01T07:37:19.855Z,5.50
2022-12-01T07:38:06.832Z,5.49
2022-12-01T07:38:53.566Z,5.47
2022-12-01T07:39:40.317Z,5.45
2022-12-01T07:40:27.218Z,5.45
2022-12-01T07:41:23.368Z,5.57
2022-12-01T07:42:17.208Z,5.57
2022-12-01T07:43:04.038Z,5.57
2022-12-01T07:45:53.947Z,5.57
2022-12-01T07:47:05.739Z,5.59
2022-12-01T07:56:10.989Z,5.58
2022-12-01T08:18:35.871Z,5.58
2022-12-01T08:19:22.446Z,5.58
2022-12-01T08:20:09.424Z,5.60
2022-12-01T08:20:58.788Z,5.60
2022-12-01T08:21:45.443Z,5.62
2022-12-01T08:22:32.524Z,5.61
2022-12-01T08:23:19.274Z,5.60
2022-12-01T08:24:06.490Z,5.61
2022-12-01T08:24:53.077Z,5.57
2022-12-01T08:25:39.649Z,5.59
2022-12-01T08:26:27.570Z,5.58
2022-12-01T08:27:14.410Z,5.61
2022-12-01T08:28:01.583Z,5.60
2022-12-01T08:28:48.987Z,5.56
2022-12-01T08:29:35.970Z,5.51
2022-12-01T08:30:22.738Z,5.52
2022-12-01T08:31:22.901Z,5.54
2022-12-01T08:32:09.586Z,5.55
2022-12-01T08:32:57.634Z,5.57
2022-12-01T08:33:45.620Z,5.61
2022-12-01T08:34:35.638Z,5.59
2022-12-01T08:35:24.156Z,5.57
2022-12-01T08:36:10.902Z,5.59
2022-12-01T08:36:57.569Z,5.59
2022-12-01T08:37:44.024Z,5.62
2022-12-01T08:38:31.223Z,5.65
2022-12-01T08:39:17.679Z,5.67
2022-12-01T08:40:04.877Z,5.66
2022-12-01T08:40:51.327Z,5.68
2022-12-01T08:41:37.980Z,5.67
2022-12-01T08:42:24.627Z,5.68
2022-12-01T08:43:28.290Z,5.65
2022-12-01T08:44:18.393Z,5.60
2022-12-01T08:45:05.605Z,5.60
2022-12-01T08:45:52.120Z,5.62
2022-12-01T08:46:38.779Z,5.61
2022-12-01T08:47:28.883Z,5.69
2022-12-01T08:48:15.567Z,5.71
2022-12-01T08:49:04.496Z,5.72
2022-12-01T08:49:51.379Z,5.72
2022-12-01T08:50:37.995Z,5.75
2022-12-01T08:51:26.370Z,5.80
2022-12-01T08:52:12.844Z,5.80
2022-12-01T08:52:59.314Z,5.82
2022-12-01T08:53:48.844Z,5.81
2022-12-01T08:54:35.518Z,5.83
2022-12-01T08:55:22.610Z,5.87
2022-12-01T08:56:20.653Z,5.93
2022-12-01T08:57:07.381Z,5.98
2022-12-01T08:57:54.025Z,6.00
2022-12-01T08:58:40.660Z,6.09
2022-12-01T08:59:27.168Z,6.09
2022-12-01T09:00:14.219Z,6.07
2022-12-01T09:01:03.252Z,6.04
2022-12-01T09:01:53.819Z,6.03
2022-12-01T09:02:40.378Z,5.99
2022-12-01T09:03:26.874Z,5.98
2022-12-01T09:04:13.537Z,5.97
2022-12-01T09:05:01.719Z,5.92
2022-12-01T09:05:48.398Z,5.91
2022-12-01T09:06:40.315Z,5.91
2022-12-01T09:07:27.241Z,5.90
2022-12-01T09:08:31.955Z,5.90
2022-12-01T09:09:22.802Z,5.88
2022-12-01T09:10:10.079Z,5.90
2022-12-01T09:10:57.697Z,5.93
2022-12-01T09:11:46.139Z,5.97
2022-12-01T09:12:33.002Z,6.03
2022-12-01T09:13:19.790Z,6.04
2022-12-01T09:14:06.379Z,6.05
2022-12-01T09:14:53.090Z,6.08
2022-12-01T09:15:42.856Z,6.08
2022-12-01T09:16:46.081Z,6.05
2022-12-01T09:17:32.649Z,6.10
2022-12-01T09:18:19.222Z,6.06
2022-12-01T09:19:06.036Z,6.10
2022-12-01T09:19:52.762Z,6.08
2022-12-01T09:20:39.530Z,6.12
2022-12-01T09:21:30.751Z,6.17
2022-12-01T09:22:17.373Z,6.17
2022-12-01T09:23:03.861Z,6.18
2022-12-01T09:23:50.900Z,6.15
2022-12-01T09:24:38.001Z,6.13
2022-12-01T09:25:25.735Z,6.09
2022-12-01T09:26:18.028Z,6.08
2022-12-01T09:27:05.674Z,6.08
2022-12-01T09:27:52.130Z,6.09
2022-12-01T09:28:39.064Z,6.19
2022-12-01T09:29:26.083Z,6.19
2022-12-01T09:30:12.800Z,6.17
2022-12-01T09:31:07.839Z,6.16
2022-12-01T09:31:59.376Z,6.16
2022-12-01T09:32:45.812Z,6.14
2022-12-01T09:33:32.497Z,6.16
2022-12-01T09:34:20.296Z,6.16
2022-12-01T09:35:06.833Z,6.18
2022-12-01T09:35:53.240Z,6.20
2022-12-01T09:36:40.007Z,6.22
2022-12-01T09:37:26.431Z,6.16
2022-12-01T09:38:12.898Z,6.21
2022-12-01T09:39:00.546Z,6.16
2022-12-01T09:39:47.110Z,6.18
2022-12-01T09:40:40.480Z,6.15
2022-12-01T09:41:30.415Z,6.13
2022-12-01T09:42:18.520Z,6.11
2022-12-01T09:43:16.290Z,6.14
2022-12-01T09:44:20.602Z,6.18
2022-12-01T09:45:11.503Z,6.21
2022-12-01T09:46:05.956Z,6.27
2022-12-01T09:47:04.566Z,6.25
2022-12-01T09:47:55.964Z,6.24
2022-12-01T09:48:45.979Z,6.26
2022-12-01T09:49:38.356Z,6.29
2022-12-01T09:50:27.353Z,6.28
2022-12-01T09:51:15.768Z,6.31
2022-12-01T09:52:02.577Z,6.30
2022-12-01T09:53:09.585Z,6.30
2022-12-01T09:53:59.411Z,6.32
2022-12-01T09:54:48.766Z,6.31
2022-12-01T09:55:36.359Z,6.28
2022-12-01T09:56:29.636Z,6.29
2022-12-01T09:57:31.451Z,6.22
2022-12-01T09:58:22.981Z,6.17
2022-12-01T09:59:22.330Z,6.19
2022-12-01T10:00:15.481Z,6.20
2022-12-01T10:01:02.076Z,6.20
2022-12-01T10:01:56.276Z,6.14
2022-12-01T10:02:52.262Z,6.11
2022-12-01T10:03:48.285Z,6.09
2022-12-01T10:04:40.952Z,6.14
2022-12-01T10:06:10.260Z,6.10
2022-12-01T10:06:59.244Z,6.08
2022-12-01T10:07:59.935Z,6.03
2022-12-01T10:09:13.165Z,6.08
2022-12-01T10:10:06.101Z,6.09
2022-12-01T10:10:58.673Z,6.13
2022-12-01T10:11:49.494Z,6.13
2022-12-01T10:12:36.668Z,6.13
2022-12-01T10:13:26.447Z,6.15
2022-12-01T10:14:20.461Z,6.16
2022-12-01T10:15:17.878Z,6.28
2022-12-01T10:16:15.022Z,6.33
2022-12-01T10:17:07.805Z,6.30
2022-12-01T10:18:10.731Z,6.31
2022-12-01T10:19:09.865Z,6.32
2022-12-01T10:20:16.750Z,6.27
2022-12-01T10:21:27.667Z,6.30
2022-12-01T10:22:28.878Z,6.30
2022-12-01T10:23:36.938Z,6.25
2022-12-01T10:24:45.517Z,6.22
2022-12-01T10:26:00.336Z,6.24
2022-12-01T10:27:01.273Z,6.22
2022-12-01T10:28:06.130Z,6.25
2022-12-01T10:29:21.419Z,6.22
2022-12-01T10:30:10.643Z,6.22
2022-12-01T10:31:19.288Z,6.24
2022-12-01T10:32:22.475Z,6.22
2022-12-01T10:33:28.319Z,6.23
2022-12-01T10:34:20.631Z,6.22
2022-12-01T10:35:12.511Z,6.14
2022-12-01T10:35:59.046Z,6.18
2022-12-01T10:36:46.863Z,6.21
2022-12-01T10:37:33.579Z,6.32
2022-12-01T10:38:35.557Z,6.38
2022-12-01T10:39:36.844Z,6.38
2022-12-01T10:40:26.879Z,6.40
2022-12-01T10:41:18.786Z,6.41
2022-12-01T10:42:18.942Z,6.36
2022-12-01T10:43:05.363Z,6.34
2022-12-01T10:43:59.464Z,6.34
2022-12-01T10:44:46.645Z,6.29
2022-12-01T10:45:40.443Z,6.30
2022-12-01T10:46:45.629Z,6.32
2022-12-01T10:47:32.706Z,6.25
2022-12-01T10:48:21.938Z,6.25
2022-12-01T10:49:12.284Z,6.24
2022-12-01T10:49:58.996Z,6.23
2022-12-01T10:50:52.164Z,6.24
2022-12-01T10:51:54.806Z,6.30
2022-12-01T10:52:42.019Z,6.30
2022-12-01T10:53:33.658Z,6.29
2022-12-01T10:54:22.323Z,6.28
2022-12-01T10:55:26.455Z,6.25
2022-12-01T10:56:18.215Z,6.38
2022-12-01T10:57:15.114Z,6.39
2022-12-01T10:58:13.534Z,6.29
2022-12-01T10:59:19.255Z,6.31
2022-12-01T11:00:09.127Z,6.30
2022-12-01T11:01:03.531Z,6.32
2022-12-01T11:01:50.818Z,6.34
2022-12-01T11:02:38.101Z,6.38
2022-12-01T11:03:30.164Z,6.42
2022-12-01T11:04:22.769Z,6.47
2022-12-01T11:05:32.114Z,6.49
2022-12-01T11:06:23.996Z,6.48
2022-12-01T11:07:42.932Z,6.43
2022-12-01T11:08:55.087Z,6.49
2022-12-01T11:09:42.120Z,6.49
2022-12-01T11:10:37.550Z,6.46
2022-12-01T11:11:40.002Z,6.56
2022-12-01T11:12:26.641Z,6.58
2022-12-01T11:13:28.681Z,6.51
2022-12-01T11:14:22.884Z,6.50
2022-12-01T11:15:28.041Z,6.46
2022-12-01T11:16:35.529Z,6.56
2022-12-01T11:17:31.882Z,6.58
2022-12-01T11:18:36.121Z,6.66
2022-12-01T11:19:34.878Z,6.66
2022-12-01T11:20:49.794Z,6.70
2022-12-01T11:21:47.437Z,6.71
2022-12-01T11:22:34.259Z,6.68
2022-12-01T11:23:21.054Z,6.72
2022-12-01T11:24:28.302Z,6.78
2022-12-01T11:25:22.227Z,6.78
2022-12-01T11:26:17.897Z,6.68
2022-12-01T11:27:15.673Z,6.65
2022-12-01T11:28:04.472Z,6.64
2022-12-01T11:29:04.789Z,6.67
2022-12-01T11:29:57.248Z,6.72
2022-12-01T11:30:44.198Z,6.63
2022-12-01T11:31:41.932Z,6.61
2022-12-01T11:32:32.358Z,6.58
2022-12-01T11:33:18.994Z,6.54
2022-12-01T11:34:18.687Z,6.57
2022-12-01T11:35:11.071Z,6.62
2022-12-01T11:35:58.257Z,6.53
2022-12-01T11:36:49.002Z,6.56
2022-12-01T11:37:54.929Z,6.63
2022-12-01T11:38:47.928Z,6.71
2022-12-01T11:39:41.689Z,6.73
2022-12-01T11:40:52.046Z,6.55
2022-12-01T11:41:40.847Z,6.49
2022-12-01T11:42:31.300Z,6.51
2022-12-01T11:43:24.891Z,6.54
2022-12-01T11:44:50.841Z,6.52
2022-12-01T11:45:32.519Z,6.52
2022-12-01T11:46:31.759Z,6.54
2022-12-01T11:47:27.349Z,6.54
2022-12-01T11:48:15.497Z,6.59
2022-12-01T11:49:02.439Z,6.58
2022-12-01T11:49:57.962Z,6.62
2022-12-01T11:51:09.227Z,6.49
2022-12-01T11:51:55.803Z,6.47
2022-12-01T11:52:48.642Z,6.50
2022-12-01T11:53:41.059Z,6.47
2022-12-01T11:54:28.041Z,6.48
2022-12-01T11:55:15.055Z,6.46